Time;durP1;ratioP1;P1;durP2;ratioP2;P2;SDS_P1;SDS_P2;PMS_P1;PMS_P2;Temp;Humidity;BMP_temperature;BMP_pressure;BME280_temperature;BME280_humidity;BME280_pressure;Samples;Min_cycle;Max_cycle;Signal;HPM_P1;HPM_P2
2022/09/08 00:01:00;;;;;;;4.15;0.70;;;15.80;99.90;;;;;;5048503;28;20082;-62
2022/09/08 00:03:28;;;;;;;6.18;0.98;;;15.80;99.90;;;;;;5048730;28;20071;-62
2022/09/08 00:06:16;;;;;;;4.32;0.77;;;15.80;99.90;;;;;;5047327;28;20094;-62
2022/09/08 00:08:45;;;;;;;8.45;1.45;;;15.80;99.90;;;;;;5048227;28;20091;-62
2022/09/08 00:11:15;;;;;;;5.00;1.10;;;15.80;99.90;;;;;;5046935;28;20052;-63
2022/09/08 00:13:41;;;;;;;6.45;1.10;;;15.80;99.90;;;;;;5048613;28;20049;-63
2022/09/08 00:16:10;;;;;;;4.38;1.15;;;15.80;99.90;;;;;;5048164;28;20041;-63
2022/09/08 00:18:39;;;;;;;8.90;1.23;;;15.90;99.90;;;;;;5048133;28;20091;-63
2022/09/08 00:21:06;;;;;;;4.63;1.45;;;15.90;99.90;;;;;;5048230;28;20045;-65
2022/09/08 00:23:32;;;;;;;2.50;0.80;;;15.90;99.90;;;;;;5047140;28;20056;-64
2022/09/08 00:25:59;;;;;;;6.60;1.15;;;15.90;99.90;;;;;;5048151;28;20041;-62
2022/09/08 00:28:26;;;;;;;3.05;0.75;;;15.90;99.90;;;;;;5048253;28;20048;-64
2022/09/08 00:30:55;;;;;;;3.20;0.75;;;15.80;99.90;;;;;;5034581;28;20051;-63
2022/09/08 00:33:22;;;;;;;2.88;0.98;;;15.90;99.90;;;;;;5048276;28;20045;-64
2022/09/08 00:35:51;;;;;;;7.70;1.60;;;15.90;99.90;;;;;;5048157;28;20580;-65
2022/09/08 00:38:19;;;;;;;4.88;0.75;;;15.80;99.90;;;;;;5046942;28;20060;-65
2022/09/08 00:40:46;;;;;;;13.52;2.05;;;15.80;99.90;;;;;;5048298;28;20063;-64
2022/09/08 00:43:35;;;;;;;4.68;0.90;;;15.80;99.90;;;;;;5047489;28;20044;-64
2022/09/08 00:46:12;;;;;;;5.25;0.80;;;15.80;99.90;;;;;;5048011;28;20083;-64
2022/09/08 00:49:01;;;;;;;5.57;0.93;;;15.90;99.90;;;;;;5046918;28;20048;-64
2022/09/08 00:51:27;;;;;;;1.95;0.32;;;15.90;99.90;;;;;;4695702;28;10000471;-65
2022/09/08 00:53:54;;;;;;;0.88;0.40;;;15.90;99.90;;;;;;5038471;28;20052;-65
2022/09/08 00:56:21;;;;;;;2.95;0.95;;;15.80;99.90;;;;;;5046620;28;20045;-65
2022/09/08 00:58:48;;;;;;;1.55;0.45;;;15.80;99.90;;;;;;5046742;28;20055;-65
2022/09/08 01:01:14;;;;;;;1.65;0.50;;;15.70;99.90;;;;;;5047587;28;20150;-65
2022/09/08 01:03:41;;;;;;;2.05;0.55;;;15.70;99.90;;;;;;5047414;28;20049;-64
2022/09/08 01:06:21;;;;;;;3.45;0.52;;;15.80;99.90;;;;;;5047728;28;20045;-64
2022/09/08 01:14:49;;;;;;;1.60;0.68;;;15.80;99.90;;;;;;5017063;28;20057;-64
2022/09/08 01:17:22;;;;;;;2.13;0.30;;;15.70;99.90;;;;;;5046672;28;20412;-64
2022/09/08 01:19:49;;;;;;;0.95;0.47;;;15.70;99.90;;;;;;5040511;28;20045;-63
2022/09/08 01:22:35;;;;;;;1.58;0.32;;;15.60;99.90;;;;;;5047495;28;20085;-63
2022/09/08 01:25:08;;;;;;;1.90;0.38;;;15.60;99.90;;;;;;5041094;28;20048;-64
2022/09/08 01:27:35;;;;;;;1.00;0.35;;;15.60;99.90;;;;;;5047432;28;20037;-62
2022/09/08 01:30:05;;;;;;;0.20;0.20;;;15.50;99.90;;;;;;5045840;28;20055;-64
2022/09/08 01:32:33;;;;;;;0.70;0.28;;;15.50;99.90;;;;;;5047702;28;20053;-64
2022/09/08 01:35:00;;;;;;;0.25;0.10;;;15.50;99.90;;;;;;5045581;28;20049;-64
2022/09/08 01:37:26;;;;;;;1.17;0.50;;;15.50;99.90;;;;;;5047415;28;20060;-63
2022/09/08 01:39:53;;;;;;;2.38;0.22;;;15.50;99.90;;;;;;5045656;28;20052;-62
2022/09/08 01:42:20;;;;;;;2.83;0.35;;;15.60;99.90;;;;;;5047327;28;20053;-63
2022/09/08 01:44:47;;;;;;;0.32;0.20;;;15.50;99.90;;;;;;5045615;28;20045;-61
2022/09/08 01:47:14;;;;;;;1.92;0.32;;;15.50;99.90;;;;;;5047026;28;20413;-61
2022/09/08 01:49:41;;;;;;;0.60;0.40;;;15.50;99.90;;;;;;5046971;28;20061;-62
2022/09/08 01:52:07;;;;;;;0.90;0.20;;;15.40;99.90;;;;;;5047087;28;20047;-63
2022/09/08 01:54:34;;;;;;;1.35;0.32;;;15.40;99.90;;;;;;5046682;28;20075;-63
2022/09/08 01:57:01;;;;;;;1.05;0.40;;;15.30;99.90;;;;;;5045977;28;20041;-64
2022/09/08 01:59:28;;;;;;;4.47;0.50;;;15.30;99.90;;;;;;5046339;28;20075;-63
2022/09/08 02:01:54;;;;;;;2.65;0.30;;;15.30;99.90;;;;;;5046118;28;20393;-62
2022/09/08 02:04:21;;;;;;;1.30;0.50;;;15.30;99.90;;;;;;5044742;28;20055;-62
2022/09/08 02:06:48;;;;;;;3.70;0.45;;;15.30;99.90;;;;;;5046358;28;20052;-63
2022/09/08 02:09:15;;;;;;;1.05;0.40;;;15.20;99.90;;;;;;5045820;28;20044;-63
2022/09/08 02:11:42;;;;;;;2.08;0.55;;;15.30;99.90;;;;;;5046008;28;20135;-62
2022/09/08 02:14:09;;;;;;;1.40;0.30;;;15.30;99.90;;;;;;5045824;28;20045;-62
2022/09/08 02:16:36;;;;;;;1.88;0.30;;;15.30;99.90;;;;;;5046280;28;20055;-62
2022/09/08 02:19:03;;;;;;;2.47;0.60;;;15.30;99.90;;;;;;5045773;28;20055;-62
2022/09/08 02:21:30;;;;;;;1.90;0.60;;;15.30;99.90;;;;;;5045065;28;20053;-62
2022/09/08 02:23:56;;;;;;;0.30;0.30;;;15.30;99.90;;;;;;5046136;28;20083;-62
2022/09/08 02:26:25;;;;;;;0.50;0.28;;;15.20;99.90;;;;;;5047284;28;20057;-63
2022/09/08 02:28:53;;;;;;;0.32;0.20;;;15.20;99.90;;;;;;5032230;28;20053;-61
2022/09/08 02:31:21;;;;;;;1.95;0.45;;;15.20;99.90;;;;;;5049419;28;20045;-62
2022/09/08 02:33:48;;;;;;;2.72;0.20;;;15.20;99.90;;;;;;5049873;28;20165;-63
2022/09/08 02:36:15;;;;;;;1.10;0.30;;;15.30;99.90;;;;;;5049175;28;20045;-62
2022/09/08 02:38:42;;;;;;;1.23;0.30;;;15.30;99.90;;;;;;5049670;28;20151;-62
2022/09/08 02:41:10;;;;;;;0.85;0.10;;;15.20;99.90;;;;;;5031237;28;20055;-64
2022/09/08 02:43:37;;;;;;;2.50;0.70;;;15.20;99.90;;;;;;5048506;28;20128;-63
2022/09/08 02:46:05;;;;;;;2.70;0.43;;;15.20;99.90;;;;;;5049357;28;20128;-62
2022/09/08 02:48:32;;;;;;;2.05;0.45;;;15.20;99.90;;;;;;5049737;28;20056;-64
2022/09/08 02:51:00;;;;;;;2.53;0.40;;;15.10;99.90;;;;;;5049277;28;20044;-62
2022/09/08 02:53:30;;;;;;;0.88;0.40;;;15.10;99.90;;;;;;5049283;28;20055;-62
2022/09/08 02:55:57;;;;;;;0.43;0.20;;;15.10;99.90;;;;;;5047930;28;20071;-62
2022/09/08 02:58:24;;;;;;;6.00;1.25;;;15.10;99.90;;;;;;5047841;28;20136;-62
2022/09/08 03:00:51;;;;;;;0.90;0.32;;;15.10;99.90;;;;;;5049320;28;20045;-62
2022/09/08 03:03:19;;;;;;;2.00;0.40;;;15.00;99.90;;;;;;5046116;28;20057;-63
2022/09/08 03:05:45;;;;;;;2.67;1.15;;;15.10;99.90;;;;;;5048747;28;20049;-63
2022/09/08 03:08:12;;;;;;;3.40;0.68;;;15.10;99.90;;;;;;5047501;28;20041;-62
2022/09/08 03:10:39;;;;;;;6.95;0.45;;;15.10;99.90;;;;;;5047513;28;20136;-63
2022/09/08 03:13:06;;;;;;;0.60;0.45;;;15.10;99.90;;;;;;5044710;28;20048;-62
2022/09/08 03:15:33;;;;;;;2.08;0.52;;;15.10;99.90;;;;;;5049030;28;20049;-62
2022/09/08 03:18:04;;;;;;;2.75;0.40;;;15.10;99.90;;;;;;5047171;28;20049;-63
2022/09/08 03:20:32;;;;;;;6.70;0.65;;;15.20;99.90;;;;;;5048865;28;20068;-62
2022/09/08 03:22:59;;;;;;;1.23;0.40;;;15.10;99.90;;;;;;5047991;28;20522;-62
2022/09/08 03:25:26;;;;;;;1.73;0.63;;;15.10;99.90;;;;;;5049008;28;20055;-63
2022/09/08 03:27:52;;;;;;;3.25;0.50;;;15.00;99.90;;;;;;5046766;28;20052;-63
2022/09/08 03:30:19;;;;;;;7.22;0.65;;;15.00;99.90;;;;;;5048846;28;20049;-63
2022/09/08 03:32:46;;;;;;;2.88;0.50;;;15.00;99.90;;;;;;5030932;28;20071;-63
2022/09/08 03:35:16;;;;;;;1.20;0.55;;;15.00;99.90;;;;;;5047574;28;20056;-63
2022/09/08 03:37:43;;;;;;;3.03;0.50;;;15.00;99.90;;;;;;5048531;28;20037;-63
2022/09/08 03:40:13;;;;;;;6.20;0.55;;;15.00;99.90;;;;;;5047893;28;20092;-64
2022/09/08 03:42:40;;;;;;;2.30;0.70;;;15.00;99.90;;;;;;5046883;28;20080;-62
2022/09/08 03:45:12;;;;;;;4.80;0.70;;;15.00;99.90;;;;;;5047550;28;20048;-63
2022/09/08 03:47:39;;;;;;;3.10;0.70;;;14.90;99.90;;;;;;5048243;28;20053;-63
2022/09/08 03:50:06;;;;;;;7.50;0.73;;;15.00;99.90;;;;;;5046709;28;20139;-63
2022/09/08 03:52:33;;;;;;;5.10;0.80;;;15.00;99.90;;;;;;5030365;28;20045;-62
2022/09/08 03:55:00;;;;;;;0.95;0.40;;;15.00;99.90;;;;;;5047721;28;20045;-63
2022/09/08 03:57:28;;;;;;;2.88;0.65;;;14.90;99.90;;;;;;5047969;28;20397;-63
2022/09/08 03:59:56;;;;;;;2.25;0.60;;;15.00;99.90;;;;;;5048113;28;20075;-63
2022/09/08 04:02:24;;;;;;;4.15;0.85;;;14.90;99.90;;;;;;5030562;28;20516;-63
2022/09/08 04:04:52;;;;;;;3.38;0.70;;;15.00;99.90;;;;;;5037481;28;20049;-63
2022/09/08 04:07:19;;;;;;;1.67;0.52;;;15.00;99.90;;;;;;5043041;28;20444;-62
2022/09/08 04:09:45;;;;;;;1.33;0.45;;;15.00;99.90;;;;;;5046538;28;20103;-62
2022/09/08 04:12:12;;;;;;;4.10;0.60;;;14.90;99.90;;;;;;5047819;28;20132;-62
2022/09/08 04:14:39;;;;;;;6.20;0.88;;;15.00;99.90;;;;;;5046501;28;20048;-63
2022/09/08 04:17:06;;;;;;;1.50;0.95;;;15.00;99.90;;;;;;5037067;28;20060;-62
2022/09/08 04:19:33;;;;;;;3.17;0.55;;;14.90;99.90;;;;;;5046671;28;20132;-62
2022/09/08 04:21:59;;;;;;;3.38;0.70;;;14.90;99.90;;;;;;5026617;28;20518;-62
2022/09/08 04:24:26;;;;;;;7.35;0.60;;;14.90;99.90;;;;;;5040986;28;20059;-63
2022/09/08 04:26:53;;;;;;;12.52;1.73;;;14.90;99.90;;;;;;5051477;28;20044;-60
2022/09/08 04:29:20;;;;;;;10.02;1.00;;;14.80;99.90;;;;;;5038995;28;20087;-62
2022/09/08 04:31:48;;;;;;;4.13;0.90;;;14.90;99.90;;;;;;5046357;28;20169;-62
2022/09/08 04:34:15;;;;;;;3.17;0.63;;;14.90;99.90;;;;;;5048951;28;20052;-62
2022/09/08 04:36:42;;;;;;;2.50;0.68;;;14.90;99.90;;;;;;5049798;28;20076;-62
2022/09/08 04:39:09;;;;;;;7.57;1.40;;;14.80;99.90;;;;;;5035086;28;20041;-63
2022/09/08 04:41:36;;;;;;;5.05;1.00;;;14.80;99.90;;;;;;5046056;28;20108;-63
2022/09/08 04:44:09;;;;;;;3.03;0.77;;;14.80;99.90;;;;;;5047513;28;20041;-63
2022/09/08 04:46:36;;;;;;;4.40;0.73;;;14.80;99.90;;;;;;5049909;28;20100;-62
2022/09/08 04:49:03;;;;;;;8.95;1.67;;;14.90;99.90;;;;;;5048590;28;20480;-62
2022/09/08 04:51:30;;;;;;;9.02;2.17;;;14.80;99.90;;;;;;5046198;28;20045;-63
2022/09/08 04:53:57;;;;;;;5.78;1.40;;;14.90;99.90;;;;;;5045932;28;20068;-62
2022/09/08 04:56:27;;;;;;;3.85;0.90;;;14.90;99.90;;;;;;5045631;28;20055;-62
2022/09/08 04:58:54;;;;;;;7.43;1.40;;;14.90;99.90;;;;;;5047240;28;20052;-62
2022/09/08 05:01:32;;;;;;;3.25;1.02;;;14.90;99.90;;;;;;5046914;28;20148;-62
2022/09/08 05:04:00;;;;;;;6.80;0.75;;;14.90;99.90;;;;;;5047039;28;20049;-62
2022/09/08 05:06:29;;;;;;;4.22;1.02;;;14.90;99.90;;;;;;5046830;28;20049;-63
2022/09/08 05:08:56;;;;;;;5.10;1.67;;;14.90;99.90;;;;;;5047815;28;20045;-62
2022/09/08 05:11:23;;;;;;;3.25;0.75;;;14.90;99.90;;;;;;5047148;28;20052;-63
2022/09/08 05:13:50;;;;;;;6.95;0.90;;;14.90;99.90;;;;;;5047749;28;20045;-62
2022/09/08 05:16:19;;;;;;;4.05;1.20;;;14.80;99.90;;;;;;5045372;28;20059;-60
2022/09/08 05:18:47;;;;;;;4.15;0.90;;;14.90;99.90;;;;;;5046943;28;20049;-63
2022/09/08 05:21:14;;;;;;;4.95;1.10;;;14.90;99.90;;;;;;5030751;28;20049;-64
2022/09/08 05:23:41;;;;;;;5.80;1.13;;;14.90;99.90;;;;;;5049486;28;20041;-63
2022/09/08 05:26:09;;;;;;;4.05;1.05;;;14.90;99.90;;;;;;5048049;28;20047;-62
2022/09/08 05:28:37;;;;;;;8.05;0.93;;;14.80;99.90;;;;;;5048261;28;20045;-64
2022/09/08 05:31:08;;;;;;;9.13;1.85;;;14.80;99.90;;;;;;5046611;28;20056;-62
2022/09/08 05:33:35;;;;;;;8.23;1.27;;;14.90;99.90;;;;;;5050034;28;20153;-61
2022/09/08 05:36:10;;;;;;;9.80;1.90;;;14.90;99.90;;;;;;5049154;28;20036;-63
2022/09/08 05:38:37;;;;;;;6.88;1.30;;;14.90;99.90;;;;;;5050145;28;20051;-62
2022/09/08 05:41:04;;;;;;;5.10;1.05;;;14.90;99.90;;;;;;5049444;28;20717;-63
2022/09/08 05:43:30;;;;;;;6.05;1.42;;;15.00;99.90;;;;;;5049145;28;20047;-62
2022/09/08 05:45:57;;;;;;;5.25;0.85;;;15.00;99.90;;;;;;5027863;28;20054;-62
2022/09/08 05:48:24;;;;;;;5.20;1.60;;;15.00;99.90;;;;;;5050521;28;20041;-62
2022/09/08 05:50:51;;;;;;;6.38;1.67;;;15.00;99.90;;;;;;5046921;28;20415;-63
2022/09/08 05:53:18;;;;;;;7.13;1.25;;;15.00;99.90;;;;;;5045332;28;20072;-63
2022/09/08 05:55:58;;;;;;;5.63;1.10;;;15.00;99.90;;;;;;5046961;28;20052;-63
2022/09/08 05:58:25;;;;;;;5.90;0.88;;;15.00;99.90;;;;;;5048603;28;20045;-63
2022/09/08 06:00:57;;;;;;;5.97;1.02;;;15.00;99.90;;;;;;5051115;28;20049;-62
2022/09/08 06:03:24;;;;;;;5.38;1.10;;;15.00;99.90;;;;;;5048608;28;20053;-63
2022/09/08 06:05:51;;;;;;;4.93;0.98;;;15.10;99.90;;;;;;5050690;28;20142;-62
2022/09/08 06:08:21;;;;;;;5.20;0.98;;;15.10;99.90;;;;;;5048784;28;20660;-62
2022/09/08 06:10:49;;;;;;;6.35;1.48;;;15.10;99.90;;;;;;5050528;28;20053;-63
2022/09/08 06:13:16;;;;;;;10.70;1.85;;;15.10;99.90;;;;;;5049740;28;20060;-63
2022/09/08 06:15:43;;;;;;;4.35;1.38;;;15.20;99.90;;;;;;5049068;28;20044;-61
2022/09/08 06:18:10;;;;;;;11.50;1.75;;;15.20;99.90;;;;;;5050004;28;20041;-63
2022/09/08 06:20:37;;;;;;;8.43;1.70;;;15.20;99.90;;;;;;5048792;28;20108;-62
2022/09/08 06:23:04;;;;;;;7.60;1.55;;;15.20;99.90;;;;;;5049787;28;20037;-62
2022/09/08 06:25:30;;;;;;;5.80;1.38;;;15.30;99.90;;;;;;5049250;28;20051;-61
2022/09/08 06:28:02;;;;;;;5.07;1.58;;;15.30;99.90;;;;;;5030274;28;20073;-64
2022/09/08 06:30:28;;;;;;;6.03;1.50;;;15.30;99.90;;;;;;5044472;28;20054;-63
2022/09/08 06:33:15;;;;;;;6.32;1.75;;;15.30;99.90;;;;;;5038975;28;20053;-63
2022/09/08 06:35:59;;;;;;;12.40;2.45;;;15.30;99.90;;;;;;5047348;28;20049;-64
2022/09/08 06:38:37;;;;;;;6.32;1.50;;;15.30;99.90;;;;;;5046987;28;20048;-64
2022/09/08 06:41:39;;;;;;;8.02;1.75;;;15.30;99.90;;;;;;5047398;28;20044;-63
2022/09/08 06:44:11;;;;;;;15.20;2.05;;;15.30;99.90;;;;;;5036324;28;20411;-63
2022/09/08 06:46:39;;;;;;;8.55;2.03;;;15.30;99.90;;;;;;5043850;28;20048;-62
2022/09/08 06:49:08;;;;;;;8.90;1.88;;;15.40;99.90;;;;;;5045596;28;20048;-63
2022/09/08 06:51:42;;;;;;;13.90;2.45;;;15.40;99.90;;;;;;5046756;28;20045;-63
2022/09/08 06:54:09;;;;;;;15.50;2.90;;;15.40;99.90;;;;;;5048238;28;20040;-63
2022/09/08 06:56:57;;;;;;;10.63;2.53;;;15.40;99.90;;;;;;5047265;28;20532;-64
2022/09/08 06:59:53;;;;;;;10.32;2.45;;;15.40;99.90;;;;;;5046173;28;20455;-68
2022/09/08 07:02:30;;;;;;;7.75;1.30;;;15.40;99.90;;;;;;5030215;28;20289;-64
2022/09/08 07:05:03;;;;;;;13.95;1.95;;;15.40;99.90;;;;;;5046442;28;20059;-63
2022/09/08 07:07:49;;;;;;;10.97;2.07;;;15.40;99.90;;;;;;5045186;28;20087;-62
2022/09/08 07:10:23;;;;;;;6.78;1.48;;;15.50;99.90;;;;;;5046274;28;20324;-64
2022/09/08 07:13:21;;;;;;;10.20;2.15;;;15.50;99.90;;;;;;5047528;28;20053;-64
2022/09/08 07:16:00;;;;;;;10.65;1.65;;;15.50;99.90;;;;;;5031474;28;20041;-64
2022/09/08 07:18:45;;;;;;;8.50;1.67;;;15.50;99.90;;;;;;5046733;28;20500;-64
2022/09/08 07:21:27;;;;;;;6.80;1.95;;;15.60;99.90;;;;;;5045710;28;20159;-63
2022/09/08 07:23:57;;;;;;;7.80;1.30;;;15.60;99.90;;;;;;5046563;28;20143;-63
2022/09/08 07:26:47;;;;;;;5.10;1.38;;;15.60;99.90;;;;;;5026507;28;20344;-64
2022/09/08 07:29:30;;;;;;;7.18;1.65;;;15.60;99.90;;;;;;5041687;28;20408;-64
2022/09/08 07:31:57;;;;;;;10.40;1.25;;;15.60;99.90;;;;;;5029076;28;20059;-64
2022/09/08 07:34:28;;;;;;;9.15;1.55;;;15.60;99.90;;;;;;5044307;28;20045;-63
2022/09/08 07:37:05;;;;;;;8.73;1.35;;;15.60;99.90;;;;;;5040598;28;20071;-63
2022/09/08 07:39:37;;;;;;;3.92;1.17;;;15.70;99.90;;;;;;5044711;28;20136;-64
2022/09/08 07:42:05;;;;;;;2.85;0.80;;;15.70;99.90;;;;;;5042505;28;20041;-63
2022/09/08 07:44:38;;;;;;;5.97;1.02;;;15.70;99.90;;;;;;5046796;28;20136;-63
2022/09/08 07:47:14;;;;;;;6.78;1.52;;;15.70;99.90;;;;;;5044366;28;20041;-62
2022/09/08 07:50:08;;;;;;;4.13;1.20;;;15.70;99.90;;;;;;5045977;28;20135;-63
2022/09/08 07:52:42;;;;;;;5.18;1.38;;;15.70;99.90;;;;;;5042322;28;20571;-63
2022/09/08 07:55:15;;;;;;;5.50;1.40;;;15.70;99.90;;;;;;5045834;28;20045;-63
2022/09/08 07:58:25;;;;;;;9.55;1.58;;;15.80;99.90;;;;;;5044730;28;20051;-63
2022/09/08 08:00:54;;;;;;;3.58;1.17;;;15.80;99.90;;;;;;4990999;28;20042;-62
2022/09/08 08:03:56;;;;;;;8.05;1.35;;;15.80;99.90;;;;;;4987143;28;20568;-63
2022/09/08 08:06:38;;;;;;;11.35;2.35;;;15.80;99.90;;;;;;5026607;28;20132;-62
2022/09/08 08:09:42;;;;;;;8.80;1.65;;;15.90;99.90;;;;;;5042549;28;20057;-62
2022/09/08 08:12:27;;;;;;;7.97;1.52;;;15.90;99.90;;;;;;5040929;28;20057;-63
2022/09/08 08:14:57;;;;;;;6.32;1.35;;;16.00;99.90;;;;;;5041054;28;20147;-63
2022/09/08 08:17:40;;;;;;;10.68;1.38;;;16.00;99.90;;;;;;5038727;28;20057;-62
2022/09/08 08:20:38;;;;;;;3.92;1.10;;;16.00;99.90;;;;;;5040403;28;20051;-62
2022/09/08 08:23:30;;;;;;;5.22;1.55;;;16.10;99.90;;;;;;5041733;28;20389;-63
2022/09/08 08:26:19;;;;;;;8.10;2.20;;;16.10;99.90;;;;;;5039622;28;20148;-61
2022/09/08 08:28:46;;;;;;;6.55;1.63;;;16.20;99.90;;;;;;5040244;28;20045;-63
2022/09/08 08:31:31;;;;;;;12.63;1.77;;;16.20;99.90;;;;;;5042603;28;20057;-62
2022/09/08 08:34:27;;;;;;;5.88;1.35;;;16.20;99.90;;;;;;5043069;28;20053;-62
2022/09/08 08:36:56;;;;;;;12.13;2.00;;;16.20;99.90;;;;;;5041654;28;20049;-63
2022/09/08 08:39:22;;;;;;;6.43;1.65;;;16.20;99.90;;;;;;5025482;28;20079;-63
2022/09/08 08:42:06;;;;;;;8.40;1.63;;;16.20;99.90;;;;;;5025175;28;20370;-63
2022/09/08 08:44:32;;;;;;;3.08;0.95;;;16.30;99.90;;;;;;5041144;28;20049;-62
2022/09/08 08:47:17;;;;;;;8.43;1.20;;;16.30;99.90;;;;;;5042835;28;20056;-63
2022/09/08 08:50:14;;;;;;;5.35;1.25;;;16.30;99.90;;;;;;5042330;28;20056;-63
2022/09/08 08:52:44;;;;;;;6.50;1.35;;;16.30;99.90;;;;;;5021255;28;20049;-62
2022/09/08 08:55:55;;;;;;;8.15;1.63;;;16.40;99.90;;;;;;5038357;28;20052;-62
2022/09/08 08:58:43;;;;;;;9.35;1.60;;;16.50;99.90;;;;;;5029276;28;20049;-62
2022/09/08 09:01:30;;;;;;;11.85;2.08;;;16.60;99.90;;;;;;5039090;28;20129;-62
2022/09/08 09:03:57;;;;;;;8.75;1.85;;;16.60;99.90;;;;;;5043650;28;20052;-62
2022/09/08 09:07:05;;;;;;;7.63;1.63;;;16.60;99.90;;;;;;5043124;28;20578;-63
2022/09/08 09:09:55;;;;;;;14.32;2.50;;;16.70;99.90;;;;;;5043745;28;20049;-62
2022/09/08 09:12:28;;;;;;;11.68;2.20;;;16.80;99.90;;;;;;5040897;28;20209;-61
2022/09/08 09:15:21;;;;;;;19.70;4.45;;;17.00;99.90;;;;;;5044019;28;20045;-62
2022/09/08 09:18:45;;;;;;;14.02;2.80;;;17.10;99.90;;;;;;5043767;28;20538;-62
2022/09/08 09:21:37;;;;;;;24.80;2.78;;;17.20;99.90;;;;;;5040127;28;20063;-62
2022/09/08 09:24:20;;;;;;;22.65;2.97;;;17.40;99.90;;;;;;5044972;28;20476;-63
2022/09/08 09:26:48;;;;;;;12.27;2.17;;;17.60;99.90;;;;;;5029174;28;20143;-61
2022/09/08 09:29:19;;;;;;;15.70;3.53;;;17.70;99.90;;;;;;5040549;28;20059;-62
2022/09/08 09:32:08;;;;;;;26.77;4.40;;;17.80;99.90;;;;;;5045225;28;20132;-62
2022/09/08 09:34:55;;;;;;;22.13;3.50;;;17.80;99.90;;;;;;5051099;28;20057;-62
2022/09/08 09:37:53;;;;;;;19.08;3.78;;;17.70;99.90;;;;;;5047920;28;20053;-62
2022/09/08 09:40:55;;;;;;;14.20;3.70;;;17.70;99.90;;;;;;5049992;28;20051;-62
2022/09/08 09:43:50;;;;;;;22.27;4.15;;;17.60;99.90;;;;;;5028681;28;20460;-62
2022/09/08 09:46:23;;;;;;;16.40;4.20;;;17.60;99.90;;;;;;5051118;28;20205;-63
2022/09/08 09:49:21;;;;;;;22.98;4.10;;;17.70;99.90;;;;;;5051150;28;20052;-62
2022/09/08 09:52:12;;;;;;;18.85;3.90;;;17.90;99.90;;;;;;5049685;28;20045;-62
2022/09/08 09:54:48;;;;;;;19.23;3.75;;;17.90;99.90;;;;;;5031209;28;20057;-62
2022/09/08 09:57:24;;;;;;;14.35;2.42;;;18.10;99.90;;;;;;5046419;28;20051;-62
2022/09/08 10:00:25;;;;;;;17.45;3.22;;;18.10;99.90;;;;;;5030654;28;20053;-64
2022/09/08 10:02:58;;;;;;;9.82;2.03;;;18.20;99.90;;;;;;5049144;28;20098;-62
2022/09/08 10:05:37;;;;;;;20.35;3.83;;;18.40;99.90;;;;;;5051173;28;20072;-62
2022/09/08 10:08:22;;;;;;;10.95;2.95;;;18.50;99.90;;;;;;5050833;28;20048;-61
2022/09/08 10:10:58;;;;;;;16.20;3.15;;;18.70;99.90;;;;;;5051164;28;20489;-62
2022/09/08 10:13:40;;;;;;;15.85;3.13;;;18.90;99.90;;;;;;5048425;28;20059;-61
2022/09/08 10:16:21;;;;;;;12.45;4.22;;;19.00;99.90;;;;;;5049908;28;20056;-62
2022/09/08 10:19:03;;;;;;;21.67;3.17;;;19.20;99.90;;;;;;5049312;28;20049;-62
2022/09/08 10:21:54;;;;;;;12.32;3.00;;;19.30;99.90;;;;;;5032667;28;20044;-63
2022/09/08 10:24:40;;;;;;;20.73;3.30;;;19.30;99.90;;;;;;5039693;28;20057;-62
2022/09/08 10:27:22;;;;;;;15.82;4.05;;;19.50;99.90;;;;;;5049027;28;20044;-62
2022/09/08 10:30:07;;;;;;;19.38;4.00;;;19.50;99.90;;;;;;5050465;28;20052;-62
2022/09/08 10:33:09;;;;;;;17.77;3.00;;;19.40;99.90;;;;;;5049924;28;20071;-62
2022/09/08 10:35:46;;;;;;;13.35;3.13;;;19.30;99.90;;;;;;5049249;28;20069;-62
2022/09/08 10:38:21;;;;;;;21.65;3.75;;;19.20;99.90;;;;;;5048697;28;20127;-62
2022/09/08 10:41:12;;;;;;;17.70;4.55;;;19.10;99.90;;;;;;5049103;28;20321;-63
2022/09/08 10:44:00;;;;;;;15.52;2.50;;;18.90;99.90;;;;;;5048174;28;20083;-63
2022/09/08 10:46:46;;;;;;;23.67;3.72;;;18.80;99.90;;;;;;5030633;28;20042;-63
2022/09/08 10:49:28;;;;;;;19.38;3.55;;;18.50;99.90;;;;;;5046267;28;20524;-63
2022/09/08 10:52:10;;;;;;;5.82;1.55;;;17.90;99.90;;;;;;5061180;28;20049;-65
2022/09/08 10:54:54;;;;;;;7.32;1.50;;;17.30;99.90;;;;;;5050289;28;20048;-65
2022/09/08 10:57:59;;;;;;;9.20;1.52;;;16.80;99.90;;;;;;5050134;28;20045;-65
2022/09/08 11:00:28;;;;;;;5.03;1.05;;;16.30;99.90;;;;;;5007486;28;20070;-65
2022/09/08 11:02:54;;;;;;;6.00;1.33;;;16.00;99.90;;;;;;4991233;28;20057;-65
2022/09/08 11:05:41;;;;;;;2.58;0.57;;;15.90;99.90;;;;;;5028084;28;20049;-64
2022/09/08 11:08:39;;;;;;;3.35;1.10;;;15.70;99.90;;;;;;5049585;28;20048;-65
2022/09/08 11:11:35;;;;;;;5.82;1.55;;;15.60;99.90;;;;;;5040860;28;20041;-65
2022/09/08 11:14:22;;;;;;;4.35;1.30;;;15.60;99.90;;;;;;5049668;28;20496;-65
2022/09/08 11:16:58;;;;;;;3.30;1.00;;;15.50;99.90;;;;;;5048504;28;20060;-64
2022/09/08 11:19:33;;;;;;;6.15;0.98;;;15.40;99.90;;;;;;5049093;28;20052;-64
2022/09/08 11:22:16;;;;;;;4.55;0.88;;;15.30;99.90;;;;;;5032983;28;20124;-65
2022/09/08 11:24:45;;;;;;;7.38;1.08;;;15.30;99.90;;;;;;5047986;28;20055;-65
2022/09/08 11:27:34;;;;;;;2.90;1.20;;;15.20;99.90;;;;;;5049477;28;20059;-65
2022/09/08 11:30:18;;;;;;;10.30;2.38;;;15.30;99.90;;;;;;5048010;28;20044;-65
2022/09/08 11:33:04;;;;;;;6.75;2.45;;;15.40;99.90;;;;;;5031924;28;20084;-64
2022/09/08 11:35:33;;;;;;;3.95;1.67;;;15.30;99.90;;;;;;5049171;28;20049;-65
2022/09/08 11:38:23;;;;;;;8.57;2.42;;;15.30;99.90;;;;;;5048244;28;20067;-63
2022/09/08 11:41:11;;;;;;;8.77;1.90;;;15.40;99.90;;;;;;5032269;28;20048;-64
2022/09/08 11:44:16;;;;;;;11.73;4.75;;;15.50;99.90;;;;;;5028000;28;20049;-64
2022/09/08 11:46:48;;;;;;;3.25;1.27;;;15.50;99.90;;;;;;5044043;28;20053;-63
2022/09/08 11:49:49;;;;;;;3.45;1.20;;;15.60;99.90;;;;;;5048834;28;20137;-65
2022/09/08 11:52:51;;;;;;;2.95;1.08;;;15.60;99.90;;;;;;5039757;28;20048;-62
2022/09/08 11:55:50;;;;;;;7.20;1.80;;;15.60;99.90;;;;;;5048459;28;20060;-63
2022/09/08 11:58:38;;;;;;;7.97;1.63;;;15.50;99.90;;;;;;5048926;28;20139;-65
2022/09/08 12:01:20;;;;;;;6.53;1.38;;;15.60;99.90;;;;;;5047193;28;20051;-65
2022/09/08 12:04:09;;;;;;;5.60;1.42;;;15.60;99.90;;;;;;5048735;28;20088;-65
2022/09/08 12:07:21;;;;;;;4.90;1.80;;;15.60;99.90;;;;;;5047038;28;20052;-65
2022/09/08 12:10:11;;;;;;;7.88;2.05;;;15.80;99.90;;;;;;5027865;28;20157;-64
2022/09/08 12:13:15;;;;;;;5.32;1.58;;;15.90;99.90;;;;;;5045378;28;20521;-64
2022/09/08 12:15:50;;;;;;;8.25;1.70;;;16.00;99.90;;;;;;5048344;28;20051;-65
2022/09/08 12:18:39;;;;;;;6.53;1.67;;;16.10;99.90;;;;;;5048628;28;20468;-65
2022/09/08 12:21:20;;;;;;;11.50;2.47;;;16.20;99.90;;;;;;5047356;28;20041;-62
2022/09/08 12:24:04;;;;;;;18.90;2.72;;;16.30;99.90;;;;;;5048513;28;20053;-65
2022/09/08 12:27:02;;;;;;;4.25;1.40;;;16.40;99.90;;;;;;5048174;28;20056;-63
2022/09/08 12:29:38;;;;;;;13.30;2.42;;;16.50;99.90;;;;;;5030458;28;20075;-63
2022/09/08 12:32:33;;;;;;;11.77;4.18;;;16.60;99.90;;;;;;5048395;28;20052;-63
2022/09/08 12:35:19;;;;;;;7.88;2.15;;;16.70;99.90;;;;;;5027584;28;20088;-64
2022/09/08 12:38:01;;;;;;;9.27;1.80;;;16.70;99.90;;;;;;5045548;28;20638;-63
2022/09/08 12:40:35;;;;;;;5.90;1.88;;;16.90;99.90;;;;;;5048553;28;20051;-63
2022/09/08 12:43:13;;;;;;;4.60;1.40;;;16.90;99.90;;;;;;5047341;28;20052;-64
2022/09/08 12:46:01;;;;;;;5.80;1.35;;;17.00;99.90;;;;;;5048543;28;20067;-64
2022/09/08 12:48:57;;;;;;;6.68;1.45;;;17.00;99.90;;;;;;5047104;28;20045;-64
2022/09/08 12:51:34;;;;;;;7.45;1.40;;;17.00;99.90;;;;;;5011358;28;20054;-63
2022/09/08 12:54:24;;;;;;;9.45;2.28;;;16.90;99.90;;;;;;5045051;28;20044;-64
2022/09/08 12:57:11;;;;;;;8.52;1.45;;;16.90;99.90;;;;;;5048064;28;20524;-64
2022/09/08 12:59:48;;;;;;;7.75;1.60;;;17.00;99.90;;;;;;5037223;28;20067;-64
2022/09/08 13:02:36;;;;;;;12.27;1.85;;;17.00;99.90;;;;;;5048077;28;20416;-62
2022/09/08 13:05:17;;;;;;;12.88;2.10;;;17.10;99.90;;;;;;5048037;28;20055;-63
2022/09/08 13:08:05;;;;;;;10.65;2.13;;;17.20;99.90;;;;;;5047373;28;20484;-64
2022/09/08 13:10:37;;;;;;;11.68;2.58;;;17.30;99.90;;;;;;5047863;28;20052;-63
2022/09/08 13:13:22;;;;;;;9.88;2.03;;;17.30;99.90;;;;;;5047689;28;20102;-63
2022/09/08 13:16:07;;;;;;;17.63;3.22;;;17.30;99.90;;;;;;5048023;28;20118;-65
2022/09/08 13:18:59;;;;;;;10.93;2.25;;;17.40;99.90;;;;;;5047769;28;20508;-63
2022/09/08 13:21:39;;;;;;;18.92;4.28;;;17.70;99.90;;;;;;5047967;28;20052;-64
2022/09/08 13:24:14;;;;;;;18.05;2.92;;;18.00;99.90;;;;;;5046543;28;20045;-64
2022/09/08 13:26:53;;;;;;;11.15;2.75;;;18.20;99.90;;;;;;5046657;28;20068;-64
2022/09/08 13:30:09;;;;;;;14.43;3.80;;;18.10;99.90;;;;;;5047793;28;20073;-63
2022/09/08 13:33:21;;;;;;;17.30;3.28;;;18.10;99.90;;;;;;5020435;28;20513;-64
2022/09/08 13:36:01;;;;;;;19.15;3.83;;;18.00;99.90;;;;;;5036418;28;20049;-64